sensor_id;sensor_type;location;lat;lon;timestamp;temperature;humidity
37910;DHT22;23741;49.446;8.754;2022-12-07T00:01:40;9.70;67.90
37910;DHT22;23741;49.446;8.754;2022-12-07T00:03:43;9.60;67.70
37910;DHT22;23741;49.446;8.754;2022-12-07T00:05:45;9.60;67.80
37910;DHT22;23741;49.446;8.754;2022-12-07T00:07:47;9.60;67.80
37910;DHT22;23741;49.446;8.754;2022-12-07T00:09:48;9.60;67.90
37910;DHT22;23741;49.446;8.754;2022-12-07T00:11:51;9.60;68.00
37910;DHT22;23741;49.446;8.754;2022-12-07T00:13:53;9.60;68.10
37910;DHT22;23741;49.446;8.754;2022-12-07T00:15:55;9.60;68.10
37910;DHT22;23741;49.446;8.754;2022-12-07T00:17:57;9.60;68.20
37910;DHT22;23741;49.446;8.754;2022-12-07T00:19:59;9.50;68.20
37910;DHT22;23741;49.446;8.754;2022-12-07T00:22:01;9.60;68.30
37910;DHT22;23741;49.446;8.754;2022-12-07T00:24:04;9.50;68.30
37910;DHT22;23741;49.446;8.754;2022-12-07T00:26:06;9.60;68.50
37910;DHT22;23741;49.446;8.754;2022-12-07T00:28:08;9.60;68.50
37910;DHT22;23741;49.446;8.754;2022-12-07T00:30:12;9.60;68.50
37910;DHT22;23741;49.446;8.754;2022-12-07T00:32:14;9.60;68.30
37910;DHT22;23741;49.446;8.754;2022-12-07T00:34:17;9.50;68.20
37910;DHT22;23741;49.446;8.754;2022-12-07T00:36:20;9.60;68.30
37910;DHT22;23741;49.446;8.754;2022-12-07T00:38:28;9.50;68.30
37910;DHT22;23741;49.446;8.754;2022-12-07T00:40:30;9.50;68.30
37910;DHT22;23741;49.446;8.754;2022-12-07T00:42:32;9.50;68.20
37910;DHT22;23741;49.446;8.754;2022-12-07T00:44:34;9.50;68.30
37910;DHT22;23741;49.446;8.754;2022-12-07T00:46:35;9.50;68.30
37910;DHT22;23741;49.446;8.754;2022-12-07T00:48:37;9.50;68.30
37910;DHT22;23741;49.446;8.754;2022-12-07T00:50:39;9.50;68.40
37910;DHT22;23741;49.446;8.754;2022-12-07T00:52:40;9.60;68.50
37910;DHT22;23741;49.446;8.754;2022-12-07T00:54:42;9.60;68.50
37910;DHT22;23741;49.446;8.754;2022-12-07T00:56:44;9.50;68.50
37910;DHT22;23741;49.446;8.754;2022-12-07T00:58:55;9.60;68.40
37910;DHT22;23741;49.446;8.754;2022-12-07T01:00:59;9.60;68.30
37910;DHT22;23741;49.446;8.754;2022-12-07T01:03:01;9.50;69.00
37910;DHT22;23741;49.446;8.754;2022-12-07T01:05:03;9.60;68.20
37910;DHT22;23741;49.446;8.754;2022-12-07T01:07:05;9.60;68.20
37910;DHT22;23741;49.446;8.754;2022-12-07T01:09:07;9.50;68.20
37910;DHT22;23741;49.446;8.754;2022-12-07T01:11:09;9.50;68.20
37910;DHT22;23741;49.446;8.754;2022-12-07T01:13:12;9.50;68.30
37910;DHT22;23741;49.446;8.754;2022-12-07T01:15:14;9.50;68.20
37910;DHT22;23741;49.446;8.754;2022-12-07T01:17:16;9.50;68.20
37910;DHT22;23741;49.446;8.754;2022-12-07T01:19:18;9.50;68.20
37910;DHT22;23741;49.446;8.754;2022-12-07T01:21:23;9.50;68.20
37910;DHT22;23741;49.446;8.754;2022-12-07T01:23:26;9.50;68.20
37910;DHT22;23741;49.446;8.754;2022-12-07T01:25:27;9.50;68.20
37910;DHT22;23741;49.446;8.754;2022-12-07T01:27:29;9.50;68.30
37910;DHT22;23741;49.446;8.754;2022-12-07T01:29:31;9.50;68.40
37910;DHT22;23741;49.446;8.754;2022-12-07T01:31:33;9.50;68.50
37910;DHT22;23741;49.446;8.754;2022-12-07T01:33:35;9.50;68.50
37910;DHT22;23741;49.446;8.754;2022-12-07T01:35:37;9.50;68.50
37910;DHT22;23741;49.446;8.754;2022-12-07T01:37:39;9.40;68.30
37910;DHT22;23741;49.446;8.754;2022-12-07T01:39:41;9.40;68.30
37910;DHT22;23741;49.446;8.754;2022-12-07T01:41:43;9.40;68.20
37910;DHT22;23741;49.446;8.754;2022-12-07T01:46:07;9.40;68.20
37910;DHT22;23741;49.446;8.754;2022-12-07T01:48:09;9.40;68.30
37910;DHT22;23741;49.446;8.754;2022-12-07T01:50:12;9.40;68.20
37910;DHT22;23741;49.446;8.754;2022-12-07T01:52:21;9.40;68.20
37910;DHT22;23741;49.446;8.754;2022-12-07T01:54:23;9.40;68.20
37910;DHT22;23741;49.446;8.754;2022-12-07T01:56:26;9.40;68.40
37910;DHT22;23741;49.446;8.754;2022-12-07T01:58:28;9.40;68.40
37910;DHT22;23741;49.446;8.754;2022-12-07T02:00:30;9.40;68.50
37910;DHT22;23741;49.446;8.754;2022-12-07T02:02:33;9.40;68.50
37910;DHT22;23741;49.446;8.754;2022-12-07T02:04:35;9.40;68.40
37910;DHT22;23741;49.446;8.754;2022-12-07T02:06:37;9.30;68.50
37910;DHT22;23741;49.446;8.754;2022-12-07T02:08:39;9.40;68.60
37910;DHT22;23741;49.446;8.754;2022-12-07T02:10:41;9.40;68.80
37910;DHT22;23741;49.446;8.754;2022-12-07T02:12:43;9.40;69.00
37910;DHT22;23741;49.446;8.754;2022-12-07T02:14:47;9.40;68.90
37910;DHT22;23741;49.446;8.754;2022-12-07T02:17:04;9.40;68.80
37910;DHT22;23741;49.446;8.754;2022-12-07T02:23:32;9.40;68.60
37910;DHT22;23741;49.446;8.754;2022-12-07T02:27:58;9.40;68.60
37910;DHT22;23741;49.446;8.754;2022-12-07T02:30:12;9.40;68.60
37910;DHT22;23741;49.446;8.754;2022-12-07T02:32:28;9.40;68.60
37910;DHT22;23741;49.446;8.754;2022-12-07T02:34:34;9.40;68.50
37910;DHT22;23741;49.446;8.754;2022-12-07T02:36:43;9.40;68.50
37910;DHT22;23741;49.446;8.754;2022-12-07T02:38:50;9.40;68.60
37910;DHT22;23741;49.446;8.754;2022-12-07T02:40:53;9.40;68.70
37910;DHT22;23741;49.446;8.754;2022-12-07T02:43:02;9.40;68.80
37910;DHT22;23741;49.446;8.754;2022-12-07T02:45:04;9.40;68.70
37910;DHT22;23741;49.446;8.754;2022-12-07T02:47:07;9.30;68.60
37910;DHT22;23741;49.446;8.754;2022-12-07T02:49:10;9.30;68.70
37910;DHT22;23741;49.446;8.754;2022-12-07T02:51:12;9.40;68.80
37910;DHT22;23741;49.446;8.754;2022-12-07T02:55:34;9.40;68.80
37910;DHT22;23741;49.446;8.754;2022-12-07T02:59:54;9.40;68.90
37910;DHT22;23741;49.446;8.754;2022-12-07T03:04:16;9.30;68.80
37910;DHT22;23741;49.446;8.754;2022-12-07T03:06:27;9.30;68.80
37910;DHT22;23741;49.446;8.754;2022-12-07T03:10:42;9.40;68.80
37910;DHT22;23741;49.446;8.754;2022-12-07T03:15:03;9.40;68.80
37910;DHT22;23741;49.446;8.754;2022-12-07T03:17:14;9.40;68.80
37910;DHT22;23741;49.446;8.754;2022-12-07T03:19:19;9.40;68.80
37910;DHT22;23741;49.446;8.754;2022-12-07T03:21:23;9.40;68.80
37910;DHT22;23741;49.446;8.754;2022-12-07T03:23:26;9.40;68.80
37910;DHT22;23741;49.446;8.754;2022-12-07T03:25:28;9.40;68.80
37910;DHT22;23741;49.446;8.754;2022-12-07T03:27:31;9.40;68.80
37910;DHT22;23741;49.446;8.754;2022-12-07T03:29:34;9.40;68.70
37910;DHT22;23741;49.446;8.754;2022-12-07T03:31:40;9.40;68.50
37910;DHT22;23741;49.446;8.754;2022-12-07T03:33:48;9.30;68.50
37910;DHT22;23741;49.446;8.754;2022-12-07T03:36:01;9.30;68.70
37910;DHT22;23741;49.446;8.754;2022-12-07T03:38:12;9.30;68.70
37910;DHT22;23741;49.446;8.754;2022-12-07T03:40:17;9.30;69.60
37910;DHT22;23741;49.446;8.754;2022-12-07T03:42:21;9.30;68.80
37910;DHT22;23741;49.446;8.754;2022-12-07T03:44:22;9.30;68.70
37910;DHT22;23741;49.446;8.754;2022-12-07T03:53:18;9.30;68.80
37910;DHT22;23741;49.446;8.754;2022-12-07T03:55:27;9.30;68.60
37910;DHT22;23741;49.446;8.754;2022-12-07T03:57:29;9.30;68.70
37910;DHT22;23741;49.446;8.754;2022-12-07T03:59:31;9.30;68.60
37910;DHT22;23741;49.446;8.754;2022-12-07T04:01:34;9.30;68.70
37910;DHT22;23741;49.446;8.754;2022-12-07T04:03:43;9.30;68.70
37910;DHT22;23741;49.446;8.754;2022-12-07T04:05:44;9.30;68.80
37910;DHT22;23741;49.446;8.754;2022-12-07T04:07:46;9.30;68.70
37910;DHT22;23741;49.446;8.754;2022-12-07T04:09:48;9.30;68.70
37910;DHT22;23741;49.446;8.754;2022-12-07T04:11:50;9.30;68.70
37910;DHT22;23741;49.446;8.754;2022-12-07T04:13:51;9.30;68.60
37910;DHT22;23741;49.446;8.754;2022-12-07T04:16:12;9.30;68.70
37910;DHT22;23741;49.446;8.754;2022-12-07T04:18:13;9.30;68.80
37910;DHT22;23741;49.446;8.754;2022-12-07T04:20:15;9.30;68.80
37910;DHT22;23741;49.446;8.754;2022-12-07T04:22:17;9.30;68.80
37910;DHT22;23741;49.446;8.754;2022-12-07T04:24:18;9.30;68.80
37910;DHT22;23741;49.446;8.754;2022-12-07T04:26:20;9.30;68.80
37910;DHT22;23741;49.446;8.754;2022-12-07T04:28:22;9.30;68.80
37910;DHT22;23741;49.446;8.754;2022-12-07T04:30:24;9.20;68.70
37910;DHT22;23741;49.446;8.754;2022-12-07T04:32:25;9.30;68.80
37910;DHT22;23741;49.446;8.754;2022-12-07T04:34:27;9.30;69.60
37910;DHT22;23741;49.446;8.754;2022-12-07T04:36:29;9.30;68.70
37910;DHT22;23741;49.446;8.754;2022-12-07T04:38:30;9.30;68.80
37910;DHT22;23741;49.446;8.754;2022-12-07T04:40:32;9.20;68.70
37910;DHT22;23741;49.446;8.754;2022-12-07T04:42:34;9.30;68.80
37910;DHT22;23741;49.446;8.754;2022-12-07T04:44:36;9.20;68.70
37910;DHT22;23741;49.446;8.754;2022-12-07T04:46:37;9.30;68.80
37910;DHT22;23741;49.446;8.754;2022-12-07T04:48:39;9.20;68.70
37910;DHT22;23741;49.446;8.754;2022-12-07T04:50:41;9.30;68.80
37910;DHT22;23741;49.446;8.754;2022-12-07T04:52:46;9.20;68.60
37910;DHT22;23741;49.446;8.754;2022-12-07T04:54:48;9.20;68.60
37910;DHT22;23741;49.446;8.754;2022-12-07T04:56:50;9.20;68.60
37910;DHT22;23741;49.446;8.754;2022-12-07T04:58:52;9.20;68.70
37910;DHT22;23741;49.446;8.754;2022-12-07T05:00:54;9.20;68.80
37910;DHT22;23741;49.446;8.754;2022-12-07T05:02:56;9.20;68.90
37910;DHT22;23741;49.446;8.754;2022-12-07T05:04:58;9.20;69.10
37910;DHT22;23741;49.446;8.754;2022-12-07T05:07:00;9.20;69.30
37910;DHT22;23741;49.446;8.754;2022-12-07T05:09:02;9.20;69.10
37910;DHT22;23741;49.446;8.754;2022-12-07T05:11:04;9.20;69.10
37910;DHT22;23741;49.446;8.754;2022-12-07T05:13:06;9.20;69.00
37910;DHT22;23741;49.446;8.754;2022-12-07T05:15:07;9.20;69.80
37910;DHT22;23741;49.446;8.754;2022-12-07T05:17:09;9.20;69.00
37910;DHT22;23741;49.446;8.754;2022-12-07T05:19:13;9.20;69.00
37910;DHT22;23741;49.446;8.754;2022-12-07T05:21:14;9.30;69.10
37910;DHT22;23741;49.446;8.754;2022-12-07T05:23:16;9.30;69.20
37910;DHT22;23741;49.446;8.754;2022-12-07T05:25:18;9.30;69.30
37910;DHT22;23741;49.446;8.754;2022-12-07T05:27:20;9.30;69.10
37910;DHT22;23741;49.446;8.754;2022-12-07T05:29:21;9.30;68.80
37910;DHT22;23741;49.446;8.754;2022-12-07T05:31:24;9.20;68.50
37910;DHT22;23741;49.446;8.754;2022-12-07T05:33:26;9.20;68.20
37910;DHT22;23741;49.446;8.754;2022-12-07T05:35:28;9.20;68.20
37910;DHT22;23741;49.446;8.754;2022-12-07T05:37:29;9.20;68.20
37910;DHT22;23741;49.446;8.754;2022-12-07T05:39:31;9.20;68.20
37910;DHT22;23741;49.446;8.754;2022-12-07T05:41:33;9.10;68.10
37910;DHT22;23741;49.446;8.754;2022-12-07T05:43:53;9.10;68.10
37910;DHT22;23741;49.446;8.754;2022-12-07T05:45:55;9.10;68.20
37910;DHT22;23741;49.446;8.754;2022-12-07T05:47:57;9.00;68.20
37910;DHT22;23741;49.446;8.754;2022-12-07T05:49:59;9.00;68.30
37910;DHT22;23741;49.446;8.754;2022-12-07T05:52:01;9.00;68.50
37910;DHT22;23741;49.446;8.754;2022-12-07T05:54:03;9.00;68.70
37910;DHT22;23741;49.446;8.754;2022-12-07T05:56:05;9.00;68.60
37910;DHT22;23741;49.446;8.754;2022-12-07T05:58:07;9.00;68.60
37910;DHT22;23741;49.446;8.754;2022-12-07T06:00:27;9.00;68.60
37910;DHT22;23741;49.446;8.754;2022-12-07T06:02:29;9.00;68.70
37910;DHT22;23741;49.446;8.754;2022-12-07T06:04:32;9.00;68.60
37910;DHT22;23741;49.446;8.754;2022-12-07T06:06:34;9.00;68.60
37910;DHT22;23741;49.446;8.754;2022-12-07T06:08:36;9.00;68.60
37910;DHT22;23741;49.446;8.754;2022-12-07T06:10:38;9.00;68.70
37910;DHT22;23741;49.446;8.754;2022-12-07T06:12:39;8.90;68.70
37910;DHT22;23741;49.446;8.754;2022-12-07T06:14:44;9.00;68.80
37910;DHT22;23741;49.446;8.754;2022-12-07T06:16:45;8.90;68.60
37910;DHT22;23741;49.446;8.754;2022-12-07T06:18:47;8.90;68.50
37910;DHT22;23741;49.446;8.754;2022-12-07T06:20:49;8.90;68.30
37910;DHT22;23741;49.446;8.754;2022-12-07T06:22:51;8.90;68.20
37910;DHT22;23741;49.446;8.754;2022-12-07T06:24:52;8.90;68.20
37910;DHT22;23741;49.446;8.754;2022-12-07T06:26:54;8.90;68.20
37910;DHT22;23741;49.446;8.754;2022-12-07T06:28:56;8.90;68.20
37910;DHT22;23741;49.446;8.754;2022-12-07T06:30:58;8.90;68.30
37910;DHT22;23741;49.446;8.754;2022-12-07T06:33:00;8.90;68.30
37910;DHT22;23741;49.446;8.754;2022-12-07T06:35:02;8.90;68.20
37910;DHT22;23741;49.446;8.754;2022-12-07T06:37:04;8.80;68.30
37910;DHT22;23741;49.446;8.754;2022-12-07T06:39:06;8.80;68.50
37910;DHT22;23741;49.446;8.754;2022-12-07T06:41:09;8.80;68.50
37910;DHT22;23741;49.446;8.754;2022-12-07T06:43:10;8.80;68.40
37910;DHT22;23741;49.446;8.754;2022-12-07T06:45:12;8.80;68.40
37910;DHT22;23741;49.446;8.754;2022-12-07T06:47:14;8.80;68.40
37910;DHT22;23741;49.446;8.754;2022-12-07T06:49:36;8.80;68.40
37910;DHT22;23741;49.446;8.754;2022-12-07T06:51:37;8.80;68.40
37910;DHT22;23741;49.446;8.754;2022-12-07T06:53:42;8.80;68.50
37910;DHT22;23741;49.446;8.754;2022-12-07T06:55:44;8.80;68.40
37910;DHT22;23741;49.446;8.754;2022-12-07T06:57:46;8.80;68.40
37910;DHT22;23741;49.446;8.754;2022-12-07T06:59:47;8.80;68.40
37910;DHT22;23741;49.446;8.754;2022-12-07T07:01:49;8.80;68.40
37910;DHT22;23741;49.446;8.754;2022-12-07T07:03:51;8.80;68.40
37910;DHT22;23741;49.446;8.754;2022-12-07T07:05:52;8.70;68.40
37910;DHT22;23741;49.446;8.754;2022-12-07T07:07:54;8.70;68.60
37910;DHT22;23741;49.446;8.754;2022-12-07T07:10:16;8.70;68.20
37910;DHT22;23741;49.446;8.754;2022-12-07T07:12:17;8.70;68.40
37910;DHT22;23741;49.446;8.754;2022-12-07T07:14:19;8.70;68.70
37910;DHT22;23741;49.446;8.754;2022-12-07T07:16:23;8.70;68.60
37910;DHT22;23741;49.446;8.754;2022-12-07T07:18:24;8.70;68.60
37910;DHT22;23741;49.446;8.754;2022-12-07T07:20:26;8.70;68.50
37910;DHT22;23741;49.446;8.754;2022-12-07T07:22:28;8.70;68.50
37910;DHT22;23741;49.446;8.754;2022-12-07T07:24:30;8.70;68.60
37910;DHT22;23741;49.446;8.754;2022-12-07T07:26:31;8.70;68.70
37910;DHT22;23741;49.446;8.754;2022-12-07T07:28:33;8.70;68.80
37910;DHT22;23741;49.446;8.754;2022-12-07T07:30:35;8.70;68.80
37910;DHT22;23741;49.446;8.754;2022-12-07T07:32:37;8.70;68.70
37910;DHT22;23741;49.446;8.754;2022-12-07T07:34:39;8.70;68.80
37910;DHT22;23741;49.446;8.754;2022-12-07T07:36:41;8.70;68.80
37910;DHT22;23741;49.446;8.754;2022-12-07T07:38:42;8.70;68.90
37910;DHT22;23741;49.446;8.754;2022-12-07T07:40:44;8.70;69.00
37910;DHT22;23741;49.446;8.754;2022-12-07T07:42:49;8.70;69.00
37910;DHT22;23741;49.446;8.754;2022-12-07T07:44:51;8.70;68.90
37910;DHT22;23741;49.446;8.754;2022-12-07T07:46:53;8.70;69.00
37910;DHT22;23741;49.446;8.754;2022-12-07T07:48:55;8.80;69.00
37910;DHT22;23741;49.446;8.754;2022-12-07T07:50:56;8.80;69.10
37910;DHT22;23741;49.446;8.754;2022-12-07T07:52:58;8.70;69.20
37910;DHT22;23741;49.446;8.754;2022-12-07T07:55:00;8.80;69.20
37910;DHT22;23741;49.446;8.754;2022-12-07T07:57:02;8.80;69.20
37910;DHT22;23741;49.446;8.754;2022-12-07T07:59:03;8.80;69.10
37910;DHT22;23741;49.446;8.754;2022-12-07T08:01:06;8.80;69.10
37910;DHT22;23741;49.446;8.754;2022-12-07T08:03:08;8.80;69.40
37910;DHT22;23741;49.446;8.754;2022-12-07T08:05:10;8.80;69.30
37910;DHT22;23741;49.446;8.754;2022-12-07T08:07:13;8.80;69.40
37910;DHT22;23741;49.446;8.754;2022-12-07T08:09:15;8.80;69.40
37910;DHT22;23741;49.446;8.754;2022-12-07T08:11:17;8.80;69.20
37910;DHT22;23741;49.446;8.754;2022-12-07T08:13:19;8.80;69.20
37910;DHT22;23741;49.446;8.754;2022-12-07T08:15:26;8.80;69.30
37910;DHT22;23741;49.446;8.754;2022-12-07T08:17:28;8.80;69.40
37910;DHT22;23741;49.446;8.754;2022-12-07T08:19:30;8.90;69.50
37910;DHT22;23741;49.446;8.754;2022-12-07T08:21:31;8.90;69.50
37910;DHT22;23741;49.446;8.754;2022-12-07T08:23:33;8.90;69.50
37910;DHT22;23741;49.446;8.754;2022-12-07T08:25:40;8.90;69.40
37910;DHT22;23741;49.446;8.754;2022-12-07T08:27:42;8.90;69.40
37910;DHT22;23741;49.446;8.754;2022-12-07T08:29:44;8.90;69.50
37910;DHT22;23741;49.446;8.754;2022-12-07T08:31:46;8.90;69.40
37910;DHT22;23741;49.446;8.754;2022-12-07T08:33:48;8.90;69.40
37910;DHT22;23741;49.446;8.754;2022-12-07T08:35:49;8.90;69.50
37910;DHT22;23741;49.446;8.754;2022-12-07T08:37:51;9.00;69.50
37910;DHT22;23741;49.446;8.754;2022-12-07T08:39:53;9.00;69.50
37910;DHT22;23741;49.446;8.754;2022-12-07T08:41:55;9.00;69.70
37910;DHT22;23741;49.446;8.754;2022-12-07T08:43:57;9.00;69.70
37910;DHT22;23741;49.446;8.754;2022-12-07T08:48:02;9.00;69.80
37910;DHT22;23741;49.446;8.754;2022-12-07T08:50:05;9.00;69.60
37910;DHT22;23741;49.446;8.754;2022-12-07T08:52:08;9.00;69.50
37910;DHT22;23741;49.446;8.754;2022-12-07T08:54:10;9.00;69.40
37910;DHT22;23741;49.446;8.754;2022-12-07T08:56:13;9.10;69.60
37910;DHT22;23741;49.446;8.754;2022-12-07T08:58:15;9.00;69.60
37910;DHT22;23741;49.446;8.754;2022-12-07T09:00:17;9.10;69.80
37910;DHT22;23741;49.446;8.754;2022-12-07T09:02:19;9.10;69.70
37910;DHT22;23741;49.446;8.754;2022-12-07T09:04:21;9.10;69.80
37910;DHT22;23741;49.446;8.754;2022-12-07T09:06:22;9.10;69.80
37910;DHT22;23741;49.446;8.754;2022-12-07T09:08:31;9.10;69.70
37910;DHT22;23741;49.446;8.754;2022-12-07T09:10:34;9.10;69.60
37910;DHT22;23741;49.446;8.754;2022-12-07T09:12:36;9.10;69.50
37910;DHT22;23741;49.446;8.754;2022-12-07T09:14:38;9.10;69.50
37910;DHT22;23741;49.446;8.754;2022-12-07T09:16:39;9.10;69.40
37910;DHT22;23741;49.446;8.754;2022-12-07T09:18:41;9.10;69.40
37910;DHT22;23741;49.446;8.754;2022-12-07T09:20:43;9.10;69.40
37910;DHT22;23741;49.446;8.754;2022-12-07T09:22:45;9.10;69.70
37910;DHT22;23741;49.446;8.754;2022-12-07T09:24:46;9.10;69.70
37910;DHT22;23741;49.446;8.754;2022-12-07T09:26:48;9.10;69.80
37910;DHT22;23741;49.446;8.754;2022-12-07T09:28:50;9.10;69.70
37910;DHT22;23741;49.446;8.754;2022-12-07T09:30:52;9.10;69.60
37910;DHT22;23741;49.446;8.754;2022-12-07T09:33:14;9.20;69.70
37910;DHT22;23741;49.446;8.754;2022-12-07T09:35:15;9.20;69.70
37910;DHT22;23741;49.446;8.754;2022-12-07T09:37:17;9.20;69.70
37910;DHT22;23741;49.446;8.754;2022-12-07T09:39:19;9.20;69.70
37910;DHT22;23741;49.446;8.754;2022-12-07T09:41:21;9.20;69.60
37910;DHT22;23741;49.446;8.754;2022-12-07T09:43:24;9.20;69.70
37910;DHT22;23741;49.446;8.754;2022-12-07T09:45:28;9.20;69.70
37910;DHT22;23741;49.446;8.754;2022-12-07T09:47:31;9.30;69.70
37910;DHT22;23741;49.446;8.754;2022-12-07T09:49:35;9.30;69.80
37910;DHT22;23741;49.446;8.754;2022-12-07T09:51:37;9.30;69.70
37910;DHT22;23741;49.446;8.754;2022-12-07T09:53:39;9.30;69.60
37910;DHT22;23741;49.446;8.754;2022-12-07T09:55:41;9.30;69.50
37910;DHT22;23741;49.446;8.754;2022-12-07T09:57:44;9.40;69.50
37910;DHT22;23741;49.446;8.754;2022-12-07T09:59:46;9.30;69.40
37910;DHT22;23741;49.446;8.754;2022-12-07T10:01:48;9.30;69.50
37910;DHT22;23741;49.446;8.754;2022-12-07T10:03:52;9.30;69.40
37910;DHT22;23741;49.446;8.754;2022-12-07T10:05:54;9.30;69.30
37910;DHT22;23741;49.446;8.754;2022-12-07T10:07:57;9.40;69.40
37910;DHT22;23741;49.446;8.754;2022-12-07T10:09:58;9.30;69.30
37910;DHT22;23741;49.446;8.754;2022-12-07T10:14:12;9.40;69.40
37910;DHT22;23741;49.446;8.754;2022-12-07T10:16:47;9.30;69.40
37910;DHT22;23741;49.446;8.754;2022-12-07T10:18:42;9.30;69.40
37910;DHT22;23741;49.446;8.754;2022-12-07T10:20:46;9.40;69.50
37910;DHT22;23741;49.446;8.754;2022-12-07T10:22:54;9.30;69.50
37910;DHT22;23741;49.446;8.754;2022-12-07T10:24:56;9.40;69.60
37910;DHT22;23741;49.446;8.754;2022-12-07T10:27:43;9.40;69.50
37910;DHT22;23741;49.446;8.754;2022-12-07T10:29:38;9.40;69.30
37910;DHT22;23741;49.446;8.754;2022-12-07T10:31:41;9.40;69.10
37910;DHT22;23741;49.446;8.754;2022-12-07T10:35:51;9.30;69.10
37910;DHT22;23741;49.446;8.754;2022-12-07T10:37:54;9.30;69.20
37910;DHT22;23741;49.446;8.754;2022-12-07T10:39:56;9.40;69.40
37910;DHT22;23741;49.446;8.754;2022-12-07T10:41:59;9.30;69.50
37910;DHT22;23741;49.446;8.754;2022-12-07T10:44:01;9.30;69.50
37910;DHT22;23741;49.446;8.754;2022-12-07T10:46:15;9.30;69.40
37910;DHT22;23741;49.446;8.754;2022-12-07T10:50:40;9.40;69.70
37910;DHT22;23741;49.446;8.754;2022-12-07T11:01:26;9.40;69.50
37910;DHT22;23741;49.446;8.754;2022-12-07T11:03:36;9.40;69.50
37910;DHT22;23741;49.446;8.754;2022-12-07T11:07:52;9.40;69.40
37910;DHT22;23741;49.446;8.754;2022-12-07T11:10:10;9.40;69.30
37910;DHT22;23741;49.446;8.754;2022-12-07T11:14:26;9.40;69.20
37910;DHT22;23741;49.446;8.754;2022-12-07T11:25:16;9.40;69.70
37910;DHT22;23741;49.446;8.754;2022-12-07T11:27:29;9.40;69.90
37910;DHT22;23741;49.446;8.754;2022-12-07T11:34:00;9.40;69.70
37910;DHT22;23741;49.446;8.754;2022-12-07T11:38:15;9.50;69.80
37910;DHT22;23741;49.446;8.754;2022-12-07T11:40:36;9.50;69.80
37910;DHT22;23741;49.446;8.754;2022-12-07T11:42:42;9.50;69.80
37910;DHT22;23741;49.446;8.754;2022-12-07T11:44:50;9.50;69.90
37910;DHT22;23741;49.446;8.754;2022-12-07T11:46:58;9.50;69.90
37910;DHT22;23741;49.446;8.754;2022-12-07T11:49:07;9.50;69.90
37910;DHT22;23741;49.446;8.754;2022-12-07T11:51:11;9.50;70.00
37910;DHT22;23741;49.446;8.754;2022-12-07T11:55:33;9.60;70.00
37910;DHT22;23741;49.446;8.754;2022-12-07T11:57:44;9.60;69.80
37910;DHT22;23741;49.446;8.754;2022-12-07T11:59:50;9.60;69.80
37910;DHT22;23741;49.446;8.754;2022-12-07T12:01:58;9.60;69.70
37910;DHT22;23741;49.446;8.754;2022-12-07T12:06:13;9.60;69.70
37910;DHT22;23741;49.446;8.754;2022-12-07T12:08:21;9.60;69.80
37910;DHT22;23741;49.446;8.754;2022-12-07T12:10:54;9.60;69.80
37910;DHT22;23741;49.446;8.754;2022-12-07T12:13:12;9.60;69.70
37910;DHT22;23741;49.446;8.754;2022-12-07T12:22:24;9.70;69.80
37910;DHT22;23741;49.446;8.754;2022-12-07T12:24:29;9.70;69.80
37910;DHT22;23741;49.446;8.754;2022-12-07T12:26:33;9.70;69.80
37910;DHT22;23741;49.446;8.754;2022-12-07T12:31:04;9.70;70.00
37910;DHT22;23741;49.446;8.754;2022-12-07T12:33:19;9.80;70.10
37910;DHT22;23741;49.446;8.754;2022-12-07T12:35:30;9.80;70.20
37910;DHT22;23741;49.446;8.754;2022-12-07T12:39:34;9.90;70.30
37910;DHT22;23741;49.446;8.754;2022-12-07T12:44:01;9.90;70.30
37910;DHT22;23741;49.446;8.754;2022-12-07T12:46:35;10.00;70.20
37910;DHT22;23741;49.446;8.754;2022-12-07T12:48:29;10.00;70.20
37910;DHT22;23741;49.446;8.754;2022-12-07T12:55:12;10.10;70.00
37910;DHT22;23741;49.446;8.754;2022-12-07T13:03:29;10.10;69.60
37910;DHT22;23741;49.446;8.754;2022-12-07T13:05:31;10.10;69.60
37910;DHT22;23741;49.446;8.754;2022-12-07T13:09:54;10.20;69.50
37910;DHT22;23741;49.446;8.754;2022-12-07T13:11:57;10.20;69.40
37910;DHT22;23741;49.446;8.754;2022-12-07T13:22:51;10.20;69.50
37910;DHT22;23741;49.446;8.754;2022-12-07T13:24:55;10.20;69.40
37910;DHT22;23741;49.446;8.754;2022-12-07T13:26:57;10.20;69.40
37910;DHT22;23741;49.446;8.754;2022-12-07T13:29:09;10.20;69.40
37910;DHT22;23741;49.446;8.754;2022-12-07T13:31:31;10.20;69.40
37910;DHT22;23741;49.446;8.754;2022-12-07T13:33:34;10.20;69.40
37910;DHT22;23741;49.446;8.754;2022-12-07T13:35:36;10.20;69.40
37910;DHT22;23741;49.446;8.754;2022-12-07T13:37:41;10.20;69.50
37910;DHT22;23741;49.446;8.754;2022-12-07T13:39:47;10.20;69.40
37910;DHT22;23741;49.446;8.754;2022-12-07T13:41:50;10.20;69.50
37910;DHT22;23741;49.446;8.754;2022-12-07T13:46:04;10.20;69.30
37910;DHT22;23741;49.446;8.754;2022-12-07T13:48:12;10.20;69.20
37910;DHT22;23741;49.446;8.754;2022-12-07T13:52:27;10.20;69.20
37910;DHT22;23741;49.446;8.754;2022-12-07T13:54:30;10.20;69.20
37910;DHT22;23741;49.446;8.754;2022-12-07T13:56:32;10.20;69.30
37910;DHT22;23741;49.446;8.754;2022-12-07T13:58:34;10.20;69.30
37910;DHT22;23741;49.446;8.754;2022-12-07T14:00:36;10.20;69.20
37910;DHT22;23741;49.446;8.754;2022-12-07T14:02:53;10.20;69.10
37910;DHT22;23741;49.446;8.754;2022-12-07T14:05:08;10.20;69.10
37910;DHT22;23741;49.446;8.754;2022-12-07T14:07:21;10.20;69.30
37910;DHT22;23741;49.446;8.754;2022-12-07T14:09:25;10.20;69.40
37910;DHT22;23741;49.446;8.754;2022-12-07T14:11:27;10.20;69.40
37910;DHT22;23741;49.446;8.754;2022-12-07T14:15:33;10.20;69.20
37910;DHT22;23741;49.446;8.754;2022-12-07T14:17:35;10.20;69.10
37910;DHT22;23741;49.446;8.754;2022-12-07T14:19:41;10.10;69.00
37910;DHT22;23741;49.446;8.754;2022-12-07T14:21:49;10.10;69.00
37910;DHT22;23741;49.446;8.754;2022-12-07T14:26:13;10.10;69.90
37910;DHT22;23741;49.446;8.754;2022-12-07T14:28:25;10.10;69.10
37910;DHT22;23741;49.446;8.754;2022-12-07T14:30:28;10.10;70.00
37910;DHT22;23741;49.446;8.754;2022-12-07T14:32:31;10.10;69.20
37910;DHT22;23741;49.446;8.754;2022-12-07T14:34:33;10.10;69.20
37910;DHT22;23741;49.446;8.754;2022-12-07T14:36:34;10.10;69.30
37910;DHT22;23741;49.446;8.754;2022-12-07T14:38:36;10.10;69.20
37910;DHT22;23741;49.446;8.754;2022-12-07T14:40:38;10.10;69.20
37910;DHT22;23741;49.446;8.754;2022-12-07T14:42:40;10.10;69.20
37910;DHT22;23741;49.446;8.754;2022-12-07T14:44:43;10.10;69.10
37910;DHT22;23741;49.446;8.754;2022-12-07T14:46:45;10.10;69.20
37910;DHT22;23741;49.446;8.754;2022-12-07T14:49:13;10.10;69.30
37910;DHT22;23741;49.446;8.754;2022-12-07T14:51:36;10.10;69.30
37910;DHT22;23741;49.446;8.754;2022-12-07T14:53:59;10.10;69.30
37910;DHT22;23741;49.446;8.754;2022-12-07T14:56:01;10.10;69.20
37910;DHT22;23741;49.446;8.754;2022-12-07T14:58:03;10.10;69.10
37910;DHT22;23741;49.446;8.754;2022-12-07T15:00:05;10.10;69.20
37910;DHT22;23741;49.446;8.754;2022-12-07T15:02:09;10.10;69.10
37910;DHT22;23741;49.446;8.754;2022-12-07T15:04:10;10.10;69.20
37910;DHT22;23741;49.446;8.754;2022-12-07T15:06:13;10.10;69.20
37910;DHT22;23741;49.446;8.754;2022-12-07T15:08:15;10.10;69.20
37910;DHT22;23741;49.446;8.754;2022-12-07T15:10:22;10.10;69.30